Time;durP1;ratioP1;P1;durP2;ratioP2;P2;SDS_P1;SDS_P2;PMS_P1;PMS_P2;Temp;Humidity;BMP_temperature;BMP_pressure;BME280_temperature;BME280_humidity;BME280_pressure;Samples;Min_cycle;Max_cycle;Signal;HPM_P1;HPM_P2
2022/03/22 00:00:55;;;;;;;;;;;5.50;56.40;;;;;;5069484;28;19993;-78
2022/03/22 00:03:24;;;;;;;;;;;5.50;56.60;;;;;;5078028;28;20007;-78
2022/03/22 00:05:56;;;;;;;;;;;5.30;58.50;;;;;;5056709;28;19974;-79
2022/03/22 00:08:23;;;;;;;;;;;5.30;57.60;;;;;;5078559;28;20388;-77
2022/03/22 00:10:50;;;;;;;;;;;5.20;58.10;;;;;;5077192;28;19929;-78
2022/03/22 00:13:16;;;;;;;;;;;5.10;58.40;;;;;;5067871;28;19954;-77
2022/03/22 00:15:44;;;;;;;;;;;5.00;58.40;;;;;;5069751;28;19952;-78
2022/03/22 00:18:31;;;;;;;;;;;4.90;58.40;;;;;;5078340;28;19924;-79
2022/03/22 00:20:57;;;;;;;;;;;4.90;59.10;;;;;;5082287;28;19909;-78
2022/03/22 00:23:24;;;;;;;;;;;4.80;59.10;;;;;;5067691;28;19932;-78
2022/03/22 00:25:51;;;;;;;;;;;4.80;59.30;;;;;;5068689;28;20384;-78
2022/03/22 00:28:18;;;;;;;;;;;4.70;59.40;;;;;;5061831;28;19952;-78
2022/03/22 00:30:45;;;;;;;;;;;4.70;59.40;;;;;;5061733;28;20343;-78
2022/03/22 00:33:12;;;;;;;;;;;4.70;59.40;;;;;;5069161;28;19975;-78
2022/03/22 00:35:39;;;;;;;;;;;4.70;59.30;;;;;;5070219;28;19924;-78
2022/03/22 00:38:13;;;;;;;;;;;4.60;59.40;;;;;;5074036;28;19917;-79
2022/03/22 00:40:40;;;;;;;;;;;4.60;59.10;;;;;;5064298;28;19928;-77
2022/03/22 00:43:07;;;;;;;;;;;4.70;58.80;;;;;;5068989;28;19931;-78
2022/03/22 00:45:34;;;;;;;;;;;4.80;58.10;;;;;;5071456;28;19936;-77
2022/03/22 00:48:02;;;;;;;;;;;4.90;57.60;;;;;;5064319;28;19999;-78
2022/03/22 00:50:33;;;;;;;;;;;5.10;57.20;;;;;;5059861;28;19924;-77
2022/03/22 00:53:01;;;;;;;;;;;5.30;56.50;;;;;;5069149;28;19928;-79
2022/03/22 00:55:28;;;;;;;;;;;5.50;55.40;;;;;;5072378;28;19925;-79
2022/03/22 00:57:55;;;;;;;;;;;5.70;54.90;;;;;;5069699;28;19928;-77
2022/03/22 01:00:26;;;;;;;;;;;5.90;54.40;;;;;;5073927;28;20380;-77
2022/03/22 01:02:54;;;;;;;;;;;5.90;54.20;;;;;;5071658;28;19925;-77
2022/03/22 01:05:21;;;;;;;;;;;6.00;53.90;;;;;;5076090;28;20015;-77
2022/03/22 01:07:50;;;;;;;;;;;6.00;53.80;;;;;;5078138;28;20380;-79
2022/03/22 01:10:18;;;;;;;;;;;6.00;54.00;;;;;;5073728;28;19932;-79
2022/03/22 01:12:45;;;;;;;;;;;6.00;53.70;;;;;;5081697;28;19932;-78
2022/03/22 01:15:15;;;;;;;;;;;6.00;53.40;;;;;;5073695;28;19928;-78
2022/03/22 01:17:42;;;;;;;;;;;6.00;53.60;;;;;;5072907;28;19908;-77
2022/03/22 01:20:10;;;;;;;;;;;6.10;53.40;;;;;;5074415;28;19928;-75
2022/03/22 01:22:46;;;;;;;;;;;6.10;53.40;;;;;;5079679;28;19928;-78
2022/03/22 01:25:14;;;;;;;;;;;6.10;53.20;;;;;;5082867;28;19925;-79
2022/03/22 01:27:42;;;;;;;;;;;6.20;52.90;;;;;;5058573;28;19925;-77
2022/03/22 01:30:09;;;;;;;;;;;6.20;53.30;;;;;;5069077;28;19939;-77
2022/03/22 01:32:36;;;;;;;;;;;6.10;53.40;;;;;;5075768;28;19979;-78
2022/03/22 01:35:04;;;;;;;;;;;6.20;53.00;;;;;;5070212;28;20011;-79
2022/03/22 01:37:31;;;;;;;;;;;6.10;53.10;;;;;;5082172;28;19931;-77
2022/03/22 01:39:58;;;;;;;;;;;6.10;52.90;;;;;;5078149;28;20019;-77
2022/03/22 01:42:25;;;;;;;;;;;6.10;52.80;;;;;;5089044;28;19928;-77
2022/03/22 01:44:52;;;;;;;;;;;6.10;52.60;;;;;;5077202;28;20304;-77
2022/03/22 01:47:25;;;;;;;;;;;6.10;52.70;;;;;;5081982;28;20200;-77
2022/03/22 01:49:52;;;;;;;;;;;6.10;52.80;;;;;;5076566;28;19925;-78
2022/03/22 01:52:20;;;;;;;;;;;6.10;52.90;;;;;;5083553;28;20370;-77
2022/03/22 01:54:49;;;;;;;;;;;6.10;52.80;;;;;;5073751;28;20385;-77
2022/03/22 01:57:17;;;;;;;;;;;6.10;52.90;;;;;;5064062;28;20442;-78
2022/03/22 01:59:44;;;;;;;;;;;6.10;53.10;;;;;;5078736;28;20457;-76
2022/03/22 02:07:44;;;;;;;;;;;6.00;53.00;;;;;;5075192;28;19924;-77
2022/03/22 02:10:11;;;;;;;;;;;6.00;53.10;;;;;;5074736;28;20388;-76
2022/03/22 02:12:38;;;;;;;;;;;5.90;53.20;;;;;;5072290;28;19925;-78
2022/03/22 02:15:05;;;;;;;;;;;5.90;53.10;;;;;;5067495;28;20277;-78
2022/03/22 02:17:32;;;;;;;;;;;5.90;53.20;;;;;;5057607;28;19928;-78
2022/03/22 02:19:59;;;;;;;;;;;5.90;53.30;;;;;;5072575;28;20339;-78
2022/03/22 02:22:31;;;;;;;;;;;5.90;53.60;;;;;;5084650;28;19928;-79
2022/03/22 02:24:58;;;;;;;;;;;5.80;52.90;;;;;;5075435;28;19925;-79
2022/03/22 02:27:28;;;;;;;;;;;5.80;53.00;;;;;;5071242;28;19932;-78
2022/03/22 02:29:55;;;;;;;;;;;5.80;53.00;;;;;;5074048;28;19933;-77
2022/03/22 02:32:26;;;;;;;;;;;5.70;53.10;;;;;;5067313;28;19928;-79
2022/03/22 02:34:52;;;;;;;;;;;5.70;53.10;;;;;;5071949;28;19951;-78
2022/03/22 02:37:19;;;;;;;;;;;5.70;53.10;;;;;;5075231;28;19944;-77
2022/03/22 02:39:46;;;;;;;;;;;5.80;53.00;;;;;;5073038;28;19924;-77
2022/03/22 02:42:13;;;;;;;;;;;5.80;52.50;;;;;;5075799;28;20408;-76
2022/03/22 02:44:39;;;;;;;;;;;5.90;52.00;;;;;;5076091;28;20304;-78
2022/03/22 02:47:06;;;;;;;;;;;6.10;51.40;;;;;;5069973;28;19955;-76
2022/03/22 02:49:34;;;;;;;;;;;6.10;51.70;;;;;;5078142;28;20447;-78
2022/03/22 02:52:01;;;;;;;;;;;6.20;50.20;;;;;;5061467;28;19925;-78
2022/03/22 02:54:28;;;;;;;;;;;6.20;50.50;;;;;;5080145;28;19928;-78
2022/03/22 02:56:54;;;;;;;;;;;6.20;50.40;;;;;;5059457;28;19929;-77
2022/03/22 02:59:21;;;;;;;;;;;6.30;50.00;;;;;;5076718;28;19983;-78
2022/03/22 03:01:48;;;;;;;;;;;6.30;50.20;;;;;;5082852;28;19908;-79
2022/03/22 03:04:15;;;;;;;;;;;6.30;50.30;;;;;;5064436;28;20019;-76
2022/03/22 03:06:41;;;;;;;;;;;6.30;50.30;;;;;;5072872;28;19925;-79
2022/03/22 03:09:10;;;;;;;;;;;6.30;50.20;;;;;;5072747;28;20011;-78
2022/03/22 03:11:36;;;;;;;;;;;6.30;49.90;;;;;;5059014;28;19928;-78
2022/03/22 03:16:48;;;;;;;;;;;6.40;49.40;;;;;;5069400;28;19978;-79
2022/03/22 03:19:15;;;;;;;;;;;6.40;49.60;;;;;;5063622;28;19978;-78
2022/03/22 03:21:42;;;;;;;;;;;6.40;49.40;;;;;;5070613;28;19959;-77
2022/03/22 03:24:10;;;;;;;;;;;6.40;49.40;;;;;;5058898;28;19928;-77
2022/03/22 03:26:36;;;;;;;;;;;6.50;49.30;;;;;;5072600;28;19925;-77
2022/03/22 03:29:03;;;;;;;;;;;6.50;48.90;;;;;;5073501;28;19925;-76
2022/03/22 03:31:30;;;;;;;;;;;6.50;49.30;;;;;;5082649;28;19924;-77
2022/03/22 03:33:57;;;;;;;;;;;6.40;49.70;;;;;;5070709;28;19947;-77
2022/03/22 03:36:23;;;;;;;;;;;6.20;49.80;;;;;;5074048;28;19928;-78
2022/03/22 03:38:50;;;;;;;;;;;6.20;50.00;;;;;;5079455;28;19974;-78
2022/03/22 03:47:03;;;;;;;;;;;6.00;50.30;;;;;;5070925;28;20351;-78
2022/03/22 03:47:05;;;;;;;;;;;5.90;50.40;;;;;;5075774;28;19928;-78
2022/03/22 03:49:36;;;;;;;;;;;5.90;50.60;;;;;;5071539;28;19925;-77
2022/03/22 03:52:03;;;;;;;;;;;5.80;50.90;;;;;;5058145;28;19960;-78
2022/03/22 03:54:30;;;;;;;;;;;5.70;51.00;;;;;;5068420;28;19971;-77
2022/03/22 03:56:57;;;;;;;;;;;5.70;51.20;;;;;;5064840;28;19932;-79
2022/03/22 03:59:23;;;;;;;;;;;5.70;51.20;;;;;;5057889;28;19968;-77
2022/03/22 04:01:50;;;;;;;;;;;5.60;51.50;;;;;;5077674;28;19924;-78
2022/03/22 04:04:17;;;;;;;;;;;5.60;51.20;;;;;;5074082;28;19955;-77
2022/03/22 04:06:44;;;;;;;;;;;5.60;51.20;;;;;;5085365;28;19978;-78
2022/03/22 04:09:11;;;;;;;;;;;5.60;51.60;;;;;;5070656;28;19908;-79
2022/03/22 04:11:38;;;;;;;;;;;5.40;51.90;;;;;;5071294;28;19925;-78
2022/03/22 04:14:05;;;;;;;;;;;5.40;52.30;;;;;;5077524;28;19920;-78
2022/03/22 04:16:32;;;;;;;;;;;5.30;52.20;;;;;;5068953;28;19925;-79
2022/03/22 04:18:59;;;;;;;;;;;5.40;51.80;;;;;;5068496;28;19928;-78
2022/03/22 04:21:26;;;;;;;;;;;5.40;52.10;;;;;;5073764;28;19924;-78
2022/03/22 04:23:52;;;;;;;;;;;5.40;52.10;;;;;;5078317;28;19935;-76
2022/03/22 04:26:19;;;;;;;;;;;5.30;52.20;;;;;;5064331;28;20391;-78
2022/03/22 04:34:19;;;;;;;;;;;5.20;52.30;;;;;;5073733;28;19983;-77
2022/03/22 04:36:55;;;;;;;;;;;5.20;52.30;;;;;;5074023;28;19961;-77
2022/03/22 04:39:22;;;;;;;;;;;5.20;52.80;;;;;;5075890;28;20381;-79
2022/03/22 04:41:50;;;;;;;;;;;5.10;52.60;;;;;;5075269;28;19924;-77
2022/03/22 04:44:17;;;;;;;;;;;5.10;52.80;;;;;;5084547;28;19924;-78
2022/03/22 04:46:44;;;;;;;;;;;5.00;53.00;;;;;;5073508;28;20400;-79
2022/03/22 04:49:10;;;;;;;;;;;5.00;53.20;;;;;;5070737;28;20339;-78
2022/03/22 04:57:08;;;;;;;;;;;5.00;53.30;;;;;;5079681;28;19924;-79
2022/03/22 04:59:34;;;;;;;;;;;5.00;53.20;;;;;;5062743;28;20372;-78
2022/03/22 05:02:01;;;;;;;;;;;5.00;53.30;;;;;;5068798;28;19924;-78
2022/03/22 05:04:28;;;;;;;;;;;5.00;53.40;;;;;;5067130;28;19925;-78
2022/03/22 05:06:55;;;;;;;;;;;4.90;53.20;;;;;;5072685;28;20405;-78
2022/03/22 05:09:24;;;;;;;;;;;4.90;53.10;;;;;;5081054;28;19924;-78
2022/03/22 05:11:51;;;;;;;;;;;5.00;53.10;;;;;;5074659;28;19924;-78
2022/03/22 05:14:18;;;;;;;;;;;4.90;53.60;;;;;;5076566;28;19925;-78
2022/03/22 05:16:45;;;;;;;;;;;4.80;54.00;;;;;;5073412;28;19928;-77
2022/03/22 05:19:13;;;;;;;;;;;4.70;54.20;;;;;;5067005;28;19924;-78
2022/03/22 05:21:40;;;;;;;;;;;4.50;54.30;;;;;;5081819;28;19924;-76
2022/03/22 05:24:07;;;;;;;;;;;4.60;53.90;;;;;;5081408;28;19967;-76
2022/03/22 05:26:34;;;;;;;;;;;4.60;53.80;;;;;;5077903;28;19968;-77
2022/03/22 05:29:05;;;;;;;;;;;4.60;54.70;;;;;;5074006;28;19924;-77
2022/03/22 05:31:32;;;;;;;;;;;4.70;53.70;;;;;;5069292;28;19974;-79
2022/03/22 05:34:01;;;;;;;;;;;4.70;53.40;;;;;;5070398;28;20011;-78
2022/03/22 05:36:28;;;;;;;;;;;4.80;53.30;;;;;;5077242;28;19963;-78
2022/03/22 05:38:55;;;;;;;;;;;4.90;53.10;;;;;;5070196;28;20458;-79
2022/03/22 05:41:22;;;;;;;;;;;4.90;53.10;;;;;;5069832;28;19963;-77
2022/03/22 05:43:49;;;;;;;;;;;4.90;52.80;;;;;;5065724;28;19932;-76
2022/03/22 05:46:17;;;;;;;;;;;4.90;52.90;;;;;;5073641;28;19924;-78
2022/03/22 05:48:47;;;;;;;;;;;5.00;52.90;;;;;;5058531;28;19933;-78
2022/03/22 05:51:14;;;;;;;;;;;5.00;53.00;;;;;;5072084;28;19968;-77
2022/03/22 05:53:40;;;;;;;;;;;4.90;53.20;;;;;;5079230;28;20353;-78
2022/03/22 05:56:07;;;;;;;;;;;4.90;53.10;;;;;;5077881;28;20392;-77
2022/03/22 05:58:34;;;;;;;;;;;4.90;53.30;;;;;;5062622;28;19933;-79
2022/03/22 06:01:01;;;;;;;;;;;4.90;53.60;;;;;;5066082;28;20388;-77
2022/03/22 06:03:28;;;;;;;;;;;4.90;53.50;;;;;;5069321;28;19956;-77
2022/03/22 06:05:54;;;;;;;;;;;4.90;53.40;;;;;;5072473;28;19967;-77
2022/03/22 06:08:21;;;;;;;;;;;4.90;53.20;;;;;;5076381;28;20423;-79
2022/03/22 06:10:49;;;;;;;;;;;4.90;52.90;;;;;;5091955;28;19924;-76
2022/03/22 06:13:15;;;;;;;;;;;4.90;52.70;;;;;;5074049;28;19929;-77
2022/03/22 06:15:47;;;;;;;;;;;4.90;52.90;;;;;;5082773;28;19924;-78
2022/03/22 06:18:14;;;;;;;;;;;4.90;53.30;;;;;;5068443;28;19975;-78
2022/03/22 06:20:41;;;;;;;;;;;4.90;53.50;;;;;;5084293;28;19925;-78
2022/03/22 06:23:12;;;;;;;;;;;4.90;53.40;;;;;;5081161;28;19925;-79
2022/03/22 06:25:39;;;;;;;;;;;4.90;53.60;;;;;;5070089;28;19924;-76
2022/03/22 06:28:07;;;;;;;;;;;4.90;53.20;;;;;;5069340;28;20308;-78
2022/03/22 06:30:34;;;;;;;;;;;5.00;53.10;;;;;;5076739;28;19928;-78
2022/03/22 06:33:08;;;;;;;;;;;5.00;53.00;;;;;;5074467;28;19931;-76
2022/03/22 06:35:35;;;;;;;;;;;5.10;52.60;;;;;;5071309;28;19987;-78
2022/03/22 06:38:02;;;;;;;;;;;5.10;52.70;;;;;;5069748;28;20304;-78
2022/03/22 06:40:29;;;;;;;;;;;5.10;52.60;;;;;;5075692;28;20714;-76
2022/03/22 06:42:58;;;;;;;;;;;5.10;52.50;;;;;;5076649;28;19948;-79
2022/03/22 06:45:25;;;;;;;;;;;5.20;52.10;;;;;;5069314;28;19929;-78
2022/03/22 06:47:52;;;;;;;;;;;5.30;51.90;;;;;;5080390;28;19924;-77
2022/03/22 06:50:19;;;;;;;;;;;5.30;52.00;;;;;;5066157;28;20007;-78
2022/03/22 06:52:46;;;;;;;;;;;5.40;51.40;;;;;;5076936;28;19925;-78
2022/03/22 06:55:16;;;;;;;;;;;5.40;51.80;;;;;;5092467;28;19924;-77
2022/03/22 06:57:43;;;;;;;;;;;5.40;51.80;;;;;;5059878;28;19952;-78
2022/03/22 07:00:11;;;;;;;;;;;5.50;51.50;;;;;;5058831;28;19932;-78
2022/03/22 07:02:41;;;;;;;;;;;5.60;51.30;;;;;;5069774;28;19924;-77
2022/03/22 07:05:09;;;;;;;;;;;5.70;50.80;;;;;;5070639;28;19932;-78
2022/03/22 07:07:36;;;;;;;;;;;5.80;50.70;;;;;;5075477;28;19939;-79
2022/03/22 07:10:03;;;;;;;;;;;5.90;50.30;;;;;;5077465;28;20335;-77
2022/03/22 07:12:30;;;;;;;;;;;6.00;50.00;;;;;;5068726;28;20347;-77
2022/03/22 07:14:57;;;;;;;;;;;6.10;50.40;;;;;;5075192;28;20010;-78
2022/03/22 07:17:23;;;;;;;;;;;6.20;50.40;;;;;;5073817;28;20063;-76
2022/03/22 07:19:53;;;;;;;;;;;6.30;50.40;;;;;;5070540;28;19925;-79
2022/03/22 07:22:19;;;;;;;;;;;6.50;50.20;;;;;;5080432;28;19928;-78
2022/03/22 07:24:46;;;;;;;;;;;6.60;50.10;;;;;;5062469;28;19933;-79
2022/03/22 07:27:13;;;;;;;;;;;6.80;49.70;;;;;;5071370;28;19951;-78
2022/03/22 07:29:40;;;;;;;;;;;6.90;48.90;;;;;;5072494;28;19936;-76
2022/03/22 07:32:06;;;;;;;;;;;7.00;49.10;;;;;;5076426;28;19932;-77
2022/03/22 07:34:33;;;;;;;;;;;7.20;47.70;;;;;;5069866;28;19924;-77
2022/03/22 07:37:00;;;;;;;;;;;7.30;47.40;;;;;;5071087;28;19993;-77
2022/03/22 07:39:29;;;;;;;;;;;7.50;47.90;;;;;;5078869;28;19924;-76
2022/03/22 07:41:56;;;;;;;;;;;7.70;48.00;;;;;;5070907;28;19929;-77
2022/03/22 07:44:22;;;;;;;;;;;7.90;47.40;;;;;;5077360;28;19947;-78
2022/03/22 07:46:49;;;;;;;;;;;8.00;46.80;;;;;;5070294;28;20024;-78
2022/03/22 07:54:47;;;;;;;;;;;8.50;45.20;;;;;;5074349;28;19924;-76
2022/03/22 07:57:14;;;;;;;;;;;8.70;44.10;;;;;;5083252;28;19935;-76
2022/03/22 07:59:41;;;;;;;;;;;8.80;44.30;;;;;;5068284;28;19931;-78
2022/03/22 08:02:07;;;;;;;;;;;9.00;44.70;;;;;;5072442;28;19929;-76
2022/03/22 08:04:34;;;;;;;;;;;9.20;43.60;;;;;;5072306;28;19929;-78
2022/03/22 08:07:01;;;;;;;;;;;9.30;43.10;;;;;;5083082;28;19924;-76
2022/03/22 08:09:28;;;;;;;;;;;9.50;43.20;;;;;;5064407;28;19924;-79
2022/03/22 08:11:55;;;;;;;;;;;9.80;43.40;;;;;;5061601;28;19929;-78
2022/03/22 08:14:22;;;;;;;;;;;9.90;42.90;;;;;;5061064;28;19925;-76
2022/03/22 08:16:48;;;;;;;;;;;10.10;42.90;;;;;;5063315;28;19975;-79
2022/03/22 08:19:18;;;;;;;;;;;10.40;42.20;;;;;;5062701;28;19948;-77
2022/03/22 08:21:46;;;;;;;;;;;10.50;41.70;;;;;;5064429;28;20010;-77
2022/03/22 08:24:13;;;;;;;;;;;10.60;41.50;;;;;;5063922;28;19928;-79
2022/03/22 08:26:40;;;;;;;;;;;10.80;41.00;;;;;;5064582;28;19982;-78
2022/03/22 08:29:07;;;;;;;;;;;10.90;41.00;;;;;;5063571;28;19929;-78
2022/03/22 08:31:35;;;;;;;;;;;11.00;41.40;;;;;;5067418;28;19924;-77
2022/03/22 08:34:03;;;;;;;;;;;11.10;41.50;;;;;;5056760;28;19925;-78
2022/03/22 08:36:30;;;;;;;;;;;11.20;40.50;;;;;;5062938;28;19978;-79
2022/03/22 08:38:58;;;;;;;;;;;11.40;40.30;;;;;;5062382;28;19928;-78
2022/03/22 08:41:24;;;;;;;;;;;11.40;41.80;;;;;;5077805;28;22015;-79
2022/03/22 08:43:52;;;;;;;;;;;11.60;40.50;;;;;;5058968;28;20351;-78
2022/03/22 08:46:24;;;;;;;;;;;11.70;40.10;;;;;;5060186;28;19925;-79
2022/03/22 08:48:52;;;;;;;;;;;11.70;38.70;;;;;;5065456;28;19999;-80
2022/03/22 08:51:20;;;;;;;;;;;11.80;39.90;;;;;;5054075;28;19924;-77
2022/03/22 08:53:47;;;;;;;;;;;12.00;39.40;;;;;;5062030;28;19935;-79
2022/03/22 08:56:15;;;;;;;;;;;12.00;38.70;;;;;;5056660;28;19977;-79
2022/03/22 08:58:42;;;;;;;;;;;12.10;40.00;;;;;;5053271;28;19925;-79
2022/03/22 09:01:08;;;;;;;;;;;12.10;38.30;;;;;;5073472;28;19908;-78
2022/03/22 09:03:37;;;;;;;;;;;12.00;38.50;;;;;;5078819;28;19986;-79
2022/03/22 09:06:12;;;;;;;;;;;12.20;38.90;;;;;;5083917;28;19939;-78
2022/03/22 09:08:40;;;;;;;;;;;12.20;38.00;;;;;;5062077;28;19940;-79
2022/03/22 09:11:07;;;;;;;;;;;12.30;37.80;;;;;;5068715;28;19923;-78
2022/03/22 09:13:37;;;;;;;;;;;12.40;37.50;;;;;;5065746;28;19932;-79
2022/03/22 09:16:05;;;;;;;;;;;12.40;37.70;;;;;;5070506;28;19912;-79
2022/03/22 09:18:32;;;;;;;;;;;12.40;38.00;;;;;;5070079;28;19908;-77
2022/03/22 09:21:00;;;;;;;;;;;12.50;37.20;;;;;;5068929;28;19924;-79
2022/03/22 09:23:27;;;;;;;;;;;12.50;36.90;;;;;;5055919;28;20351;-79
2022/03/22 09:25:54;;;;;;;;;;;12.40;37.70;;;;;;5074828;28;19925;-80
2022/03/22 09:28:21;;;;;;;;;;;12.50;36.50;;;;;;5078673;28;19908;-79
2022/03/22 09:30:49;;;;;;;;;;;12.40;36.80;;;;;;5076941;28;19974;-78
2022/03/22 09:33:16;;;;;;;;;;;12.60;37.30;;;;;;5079483;28;19960;-78
2022/03/22 09:35:44;;;;;;;;;;;12.80;37.00;;;;;;5082113;28;20320;-78
2022/03/22 09:38:15;;;;;;;;;;;13.00;36.50;;;;;;5072250;28;20046;-80
2022/03/22 09:40:42;;;;;;;;;;;12.80;35.40;;;;;;5075514;28;19932;-79
2022/03/22 09:43:09;;;;;;;;;;;12.80;37.20;;;;;;5075729;28;19924;-78
2022/03/22 09:45:36;;;;;;;;;;;12.70;36.00;;;;;;5072061;28;19938;-78
2022/03/22 09:48:03;;;;;;;;;;;12.80;36.50;;;;;;5071766;28;19932;-79
2022/03/22 09:53:16;;;;;;;;;;;12.90;38.10;;;;;;5077778;28;19928;-80
2022/03/22 09:55:43;;;;;;;;;;;13.10;38.20;;;;;;5077396;28;19975;-79
2022/03/22 09:58:10;;;;;;;;;;;13.30;38.40;;;;;;5088284;28;19924;-79
2022/03/22 10:00:38;;;;;;;;;;;13.20;36.70;;;;;;5072060;28;19928;-78
2022/03/22 10:03:05;;;;;;;;;;;13.10;37.30;;;;;;5071186;28;19932;-77
2022/03/22 10:05:32;;;;;;;;;;;13.20;38.10;;;;;;5079116;28;19998;-78
2022/03/22 10:08:00;;;;;;;;;;;13.30;36.00;;;;;;5071000;28;19929;-80
2022/03/22 10:10:28;;;;;;;;;;;13.20;36.60;;;;;;5069386;28;19929;-80
2022/03/22 10:12:57;;;;;;;;;;;13.30;37.20;;;;;;5071901;28;19929;-79
2022/03/22 10:15:29;;;;;;;;;;;13.40;37.40;;;;;;5073739;28;19931;-78
2022/03/22 10:18:09;;;;;;;;;;;13.50;37.40;;;;;;5065005;28;19931;-78
2022/03/22 10:20:36;;;;;;;;;;;13.80;37.60;;;;;;5070078;28;20411;-80
2022/03/22 10:23:05;;;;;;;;;;;13.90;36.20;;;;;;5076518;28;19924;-77
2022/03/22 10:25:32;;;;;;;;;;;14.00;36.30;;;;;;5063503;28;19924;-78
2022/03/22 10:28:00;;;;;;;;;;;14.00;36.00;;;;;;5086070;28;20374;-78
2022/03/22 10:30:27;;;;;;;;;;;14.20;36.40;;;;;;5061735;28;19928;-78
2022/03/22 10:32:54;;;;;;;;;;;14.30;35.50;;;;;;5068210;28;19932;-79
2022/03/22 10:35:25;;;;;;;;;;;14.40;35.70;;;;;;5069044;28;19987;-77
2022/03/22 10:37:52;;;;;;;;;;;14.40;34.90;;;;;;5063368;28;20145;-79
2022/03/22 10:40:20;;;;;;;;;;;14.50;35.80;;;;;;5070859;28;19986;-77
2022/03/22 10:42:48;;;;;;;;;;;14.70;35.50;;;;;;5070807;28;19932;-79
2022/03/22 10:45:15;;;;;;;;;;;14.80;34.90;;;;;;5070380;28;19932;-79
2022/03/22 10:47:43;;;;;;;;;;;14.80;33.90;;;;;;5073516;28;19924;-80
2022/03/22 10:50:10;;;;;;;;;;;14.70;35.00;;;;;;5074934;28;19929;-79
2022/03/22 10:52:49;;;;;;;;;;;14.80;34.30;;;;;;5072577;28;19924;-78
2022/03/22 10:55:19;;;;;;;;;;;14.70;34.60;;;;;;5074568;28;19932;-77
2022/03/22 10:57:48;;;;;;;;;;;14.80;34.20;;;;;;5083438;28;19942;-79
2022/03/22 11:00:15;;;;;;;;;;;14.70;34.20;;;;;;5088526;28;19940;-79
2022/03/22 11:02:42;;;;;;;;;;;14.80;33.70;;;;;;5077604;28;19924;-79
2022/03/22 11:05:09;;;;;;;;;;;14.80;33.30;;;;;;5070578;28;19908;-78
2022/03/22 11:07:38;;;;;;;;;;;14.80;34.30;;;;;;5072809;28;19928;-77
2022/03/22 11:10:05;;;;;;;;;;;14.90;34.30;;;;;;5068888;28;19928;-79
2022/03/22 11:12:33;;;;;;;;;;;15.10;33.80;;;;;;5073885;28;19928;-77
2022/03/22 11:15:01;;;;;;;;;;;15.10;33.30;;;;;;5065608;28;19925;-80
2022/03/22 11:17:34;;;;;;;;;;;15.10;33.00;;;;;;5071881;28;19974;-79
2022/03/22 11:20:04;;;;;;;;;;;15.10;33.60;;;;;;5070140;28;19912;-77
2022/03/22 11:22:32;;;;;;;;;;;15.20;33.50;;;;;;5075067;28;19978;-79
2022/03/22 11:25:08;;;;;;;;;;;14.80;33.10;;;;;;5074228;28;20466;-79
2022/03/22 11:27:36;;;;;;;;;;;14.80;33.40;;;;;;5075523;28;20305;-79
2022/03/22 11:30:06;;;;;;;;;;;15.00;33.50;;;;;;5069468;28;19928;-77
2022/03/22 11:35:24;;;;;;;;;;;14.90;34.10;;;;;;5070476;28;19932;-78
2022/03/22 11:38:00;;;;;;;;;;;15.10;33.70;;;;;;5075973;28;20381;-77
2022/03/22 11:43:20;;;;;;;;;;;15.30;33.10;;;;;;5063276;28;20434;-80
2022/03/22 11:45:49;;;;;;;;;;;15.40;32.50;;;;;;5079809;28;19932;-77
2022/03/22 11:48:16;;;;;;;;;;;15.50;32.40;;;;;;5070365;28;19924;-77
2022/03/22 11:50:44;;;;;;;;;;;15.40;32.60;;;;;;5076421;28;19931;-78
2022/03/22 11:53:18;;;;;;;;;;;15.40;32.90;;;;;;5074817;28;19929;-78
2022/03/22 11:55:52;;;;;;;;;;;15.30;33.10;;;;;;5068117;28;19928;-80
2022/03/22 11:58:20;;;;;;;;;;;15.40;32.90;;;;;;5071198;28;20380;-78
2022/03/22 12:00:56;;;;;;;;;;;15.30;32.20;;;;;;5073542;28;20400;-79
2022/03/22 12:03:29;;;;;;;;;;;15.60;32.00;;;;;;5072130;28;20381;-77
2022/03/22 12:05:58;;;;;;;;;;;15.60;30.10;;;;;;5069396;28;20437;-79
2022/03/22 12:08:26;;;;;;;;;;;15.60;31.90;;;;;;5070420;28;19928;-79
2022/03/22 12:10:59;;;;;;;;;;;15.80;31.70;;;;;;5080180;28;19974;-79
2022/03/22 12:13:26;;;;;;;;;;;15.80;30.90;;;;;;5068209;28;19955;-78
2022/03/22 12:15:56;;;;;;;;;;;16.00;31.20;;;;;;5079709;28;20404;-79
2022/03/22 12:18:28;;;;;;;;;;;16.00;31.10;;;;;;5058710;28;19935;-79
2022/03/22 12:20:56;;;;;;;;;;;15.90;30.00;;;;;;5073381;28;19929;-79
2022/03/22 12:23:23;;;;;;;;;;;15.90;30.30;;;;;;5072022;28;20020;-79
2022/03/22 12:25:51;;;;;;;;;;;16.20;31.20;;;;;;5068666;28;19975;-79
2022/03/22 12:28:18;;;;;;;;;;;16.10;30.50;;;;;;5061878;28;19928;-78
2022/03/22 12:30:47;;;;;;;;;;;16.20;30.20;;;;;;5072166;28;20561;-79
2022/03/22 12:33:14;;;;;;;;;;;16.20;30.60;;;;;;5078649;28;19931;-78
2022/03/22 12:35:42;;;;;;;;;;;16.30;30.70;;;;;;5077555;28;19924;-80
2022/03/22 12:38:09;;;;;;;;;;;16.30;30.90;;;;;;5078063;28;20461;-79
2022/03/22 12:40:36;;;;;;;;;;;16.40;31.60;;;;;;5072777;28;19931;-78
2022/03/22 12:43:04;;;;;;;;;;;16.50;30.30;;;;;;5064853;28;19932;-80
2022/03/22 12:45:33;;;;;;;;;;;16.70;29.90;;;;;;5081058;28;19982;-79
2022/03/22 12:48:00;;;;;;;;;;;16.70;29.40;;;;;;5077762;28;20286;-78
2022/03/22 12:50:28;;;;;;;;;;;16.80;29.50;;;;;;5057364;28;19929;-79
2022/03/22 12:52:55;;;;;;;;;;;16.90;29.70;;;;;;5066030;28;19913;-79
2022/03/22 12:55:22;;;;;;;;;;;17.00;29.90;;;;;;5063124;28;19925;-78
2022/03/22 12:57:51;;;;;;;;;;;17.00;28.90;;;;;;5063747;28;19992;-79
2022/03/22 13:00:25;;;;;;;;;;;16.90;28.90;;;;;;5054901;28;19951;-78
2022/03/22 13:02:52;;;;;;;;;;;16.90;29.80;;;;;;5056349;28;19964;-79
2022/03/22 13:05:27;;;;;;;;;;;17.10;29.90;;;;;;5072001;28;19922;-78
2022/03/22 13:08:20;;;;;;;;;;;17.00;29.60;;;;;;5065608;28;19924;-79
2022/03/22 13:16:22;;;;;;;;;;;17.00;29.20;;;;;;5061227;28;19925;-79
2022/03/22 13:18:50;;;;;;;;;;;17.00;29.20;;;;;;5059801;28;19936;-77
2022/03/22 13:21:24;;;;;;;;;;;17.10;28.90;;;;;;5075378;28;19932;-77
2022/03/22 13:24:01;;;;;;;;;;;16.90;29.10;;;;;;5063229;28;19925;-78
2022/03/22 13:26:28;;;;;;;;;;;17.10;29.40;;;;;;5080651;28;19913;-80
2022/03/22 13:28:56;;;;;;;;;;;17.30;28.80;;;;;;5083458;28;19929;-77
2022/03/22 13:31:25;;;;;;;;;;;17.40;28.90;;;;;;5084091;28;19924;-78
2022/03/22 13:33:53;;;;;;;;;;;17.50;29.50;;;;;;5067197;28;19932;-77
2022/03/22 13:36:20;;;;;;;;;;;17.60;28.80;;;;;;5080429;28;19932;-79
2022/03/22 13:38:50;;;;;;;;;;;17.60;28.40;;;;;;5074224;28;19986;-80
2022/03/22 13:41:27;;;;;;;;;;;17.50;29.00;;;;;;5075272;28;19925;-77
2022/03/22 13:43:54;;;;;;;;;;;17.20;28.50;;;;;;5063692;28;19925;-79
2022/03/22 13:46:20;;;;;;;;;;;17.20;30.10;;;;;;5068529;28;19929;-78
2022/03/22 13:48:54;;;;;;;;;;;16.90;28.50;;;;;;5064539;28;19955;-78
2022/03/22 13:51:21;;;;;;;;;;;16.90;29.20;;;;;;5074736;28;20388;-78
2022/03/22 13:53:48;;;;;;;;;;;17.10;29.60;;;;;;5068380;28;19932;-79
2022/03/22 13:56:21;;;;;;;;;;;17.30;28.30;;;;;;5068185;28;19951;-79
2022/03/22 13:58:47;;;;;;;;;;;17.50;29.30;;;;;;5081134;28;19936;-79
2022/03/22 14:01:15;;;;;;;;;;;17.80;28.10;;;;;;5068651;28;19964;-77
2022/03/22 14:03:43;;;;;;;;;;;17.90;28.60;;;;;;5080605;28;20350;-79
2022/03/22 14:06:10;;;;;;;;;;;18.00;28.20;;;;;;5076465;28;20345;-80
2022/03/22 14:08:39;;;;;;;;;;;18.10;28.40;;;;;;5061616;28;19986;-80
2022/03/22 14:11:07;;;;;;;;;;;18.10;27.80;;;;;;5079265;28;20403;-77
2022/03/22 14:13:34;;;;;;;;;;;18.00;27.30;;;;;;5064975;28;20016;-79
2022/03/22 14:16:01;;;;;;;;;;;18.20;27.20;;;;;;5082280;28;19954;-78
2022/03/22 14:18:28;;;;;;;;;;;18.10;27.10;;;;;;5075613;28;19929;-77
2022/03/22 14:20:55;;;;;;;;;;;18.20;27.80;;;;;;5073720;28;19929;-77
2022/03/22 14:23:27;;;;;;;;;;;18.10;27.70;;;;;;5082138;28;19925;-79
2022/03/22 14:25:56;;;;;;;;;;;18.10;28.30;;;;;;5059927;28;20008;-79
2022/03/22 14:28:26;;;;;;;;;;;17.90;28.30;;;;;;5060895;28;19924;-79
2022/03/22 14:30:53;;;;;;;;;;;17.80;29.00;;;;;;5070504;28;19909;-78
2022/03/22 14:33:20;;;;;;;;;;;17.70;28.50;;;;;;5073425;28;19909;-77
2022/03/22 14:35:53;;;;;;;;;;;17.70;28.20;;;;;;5068383;28;19939;-79
2022/03/22 14:38:24;;;;;;;;;;;17.70;28.70;;;;;;5065274;28;19933;-79
2022/03/22 14:40:52;;;;;;;;;;;17.80;28.70;;;;;;5065303;28;19924;-76
2022/03/22 14:43:22;;;;;;;;;;;17.90;28.10;;;;;;5063671;28;19972;-80
2022/03/22 14:45:51;;;;;;;;;;;18.00;28.40;;;;;;5063445;28;20351;-78
2022/03/22 14:48:19;;;;;;;;;;;17.90;28.60;;;;;;5064236;28;19925;-76
2022/03/22 14:50:46;;;;;;;;;;;18.00;28.40;;;;;;5058987;28;19940;-77
2022/03/22 14:58:47;;;;;;;;;;;17.80;28.90;;;;;;5057555;28;20025;-75
2022/03/22 15:01:15;;;;;;;;;;;17.90;29.50;;;;;;5064301;28;19932;-78
2022/03/22 15:03:42;;;;;;;;;;;17.70;28.50;;;;;;5064178;28;19925;-76
2022/03/22 15:06:14;;;;;;;;;;;17.60;28.90;;;;;;5062343;28;19974;-78
2022/03/22 15:08:43;;;;;;;;;;;17.50;28.90;;;;;;5057008;28;19932;-76
2022/03/22 15:11:09;;;;;;;;;;;17.40;29.00;;;;;;5063880;28;19929;-78
2022/03/22 15:13:36;;;;;;;;;;;17.50;28.10;;;;;;5058473;28;19970;-78
2022/03/22 15:16:04;;;;;;;;;;;17.40;29.10;;;;;;5061472;28;20380;-76